sensor_id;sensor_type;location;lat;lon;timestamp;P1;durP1;ratioP1;P2;durP2;ratioP2
13319;SDS011;59599;47.608;12.190;2023-06-10T00:01:56;5.10;;;3.73;;
13319;SDS011;59599;47.608;12.190;2023-06-10T00:04:25;4.65;;;3.65;;
13319;SDS011;59599;47.608;12.190;2023-06-10T00:06:51;5.57;;;3.63;;
13319;SDS011;59599;47.608;12.190;2023-06-10T00:09:16;4.53;;;3.47;;
13319;SDS011;59599;47.608;12.190;2023-06-10T00:11:43;4.10;;;3.70;;
13319;SDS011;59599;47.608;12.190;2023-06-10T00:14:09;4.00;;;3.60;;
13319;SDS011;59599;47.608;12.190;2023-06-10T00:16:35;5.83;;;3.60;;
13319;SDS011;59599;47.608;12.190;2023-06-10T00:19:01;3.40;;;3.07;;
13319;SDS011;59599;47.608;12.190;2023-06-10T00:21:28;3.77;;;3.47;;
13319;SDS011;59599;47.608;12.190;2023-06-10T00:23:54;3.90;;;3.50;;
13319;SDS011;59599;47.608;12.190;2023-06-10T00:26:21;5.47;;;3.23;;
13319;SDS011;59599;47.608;12.190;2023-06-10T00:28:48;3.87;;;3.37;;
13319;SDS011;59599;47.608;12.190;2023-06-10T00:31:13;4.20;;;3.80;;
13319;SDS011;59599;47.608;12.190;2023-06-10T00:33:39;3.63;;;3.30;;
13319;SDS011;59599;47.608;12.190;2023-06-10T00:36:05;4.03;;;3.53;;
13319;SDS011;59599;47.608;12.190;2023-06-10T00:38:31;4.87;;;3.63;;
13319;SDS011;59599;47.608;12.190;2023-06-10T00:40:57;3.50;;;3.20;;
13319;SDS011;59599;47.608;12.190;2023-06-10T00:43:23;5.20;;;3.47;;
13319;SDS011;59599;47.608;12.190;2023-06-10T00:45:49;6.40;;;3.87;;
13319;SDS011;59599;47.608;12.190;2023-06-10T00:48:15;4.60;;;3.93;;
13319;SDS011;59599;47.608;12.190;2023-06-10T00:50:41;5.50;;;3.60;;
13319;SDS011;59599;47.608;12.190;2023-06-10T00:53:06;4.50;;;3.90;;
13319;SDS011;59599;47.608;12.190;2023-06-10T00:55:33;6.77;;;3.90;;
13319;SDS011;59599;47.608;12.190;2023-06-10T00:57:59;6.17;;;3.77;;
13319;SDS011;59599;47.608;12.190;2023-06-10T01:00:26;4.33;;;3.90;;
13319;SDS011;59599;47.608;12.190;2023-06-10T01:02:52;4.13;;;3.73;;
13319;SDS011;59599;47.608;12.190;2023-06-10T01:05:18;4.10;;;3.60;;
13319;SDS011;59599;47.608;12.190;2023-06-10T01:07:56;5.33;;;3.63;;
13319;SDS011;59599;47.608;12.190;2023-06-10T01:10:29;4.33;;;3.83;;
13319;SDS011;59599;47.608;12.190;2023-06-10T01:12:59;4.17;;;3.70;;
13319;SDS011;59599;47.608;12.190;2023-06-10T01:15:28;5.83;;;4.10;;
13319;SDS011;59599;47.608;12.190;2023-06-10T01:17:55;5.47;;;3.80;;
13319;SDS011;59599;47.608;12.190;2023-06-10T01:20:22;5.20;;;3.90;;
13319;SDS011;59599;47.608;12.190;2023-06-10T01:22:49;4.80;;;3.40;;
13319;SDS011;59599;47.608;12.190;2023-06-10T01:25:15;6.27;;;3.27;;
13319;SDS011;59599;47.608;12.190;2023-06-10T01:27:42;9.07;;;3.53;;
13319;SDS011;59599;47.608;12.190;2023-06-10T01:30:13;4.83;;;3.33;;
13319;SDS011;59599;47.608;12.190;2023-06-10T01:32:43;3.53;;;3.23;;
13319;SDS011;59599;47.608;12.190;2023-06-10T01:35:10;4.77;;;3.40;;
13319;SDS011;59599;47.608;12.190;2023-06-10T01:37:37;4.33;;;3.80;;
13319;SDS011;59599;47.608;12.190;2023-06-10T01:40:05;4.50;;;3.67;;
13319;SDS011;59599;47.608;12.190;2023-06-10T01:42:31;6.13;;;3.80;;
13319;SDS011;59599;47.608;12.190;2023-06-10T01:44:58;7.37;;;4.00;;
13319;SDS011;59599;47.608;12.190;2023-06-10T01:47:24;4.37;;;3.97;;
13319;SDS011;59599;47.608;12.190;2023-06-10T01:49:49;4.83;;;4.00;;
13319;SDS011;59599;47.608;12.190;2023-06-10T01:52:15;4.87;;;3.90;;
13319;SDS011;59599;47.608;12.190;2023-06-10T01:54:41;4.03;;;3.67;;
13319;SDS011;59599;47.608;12.190;2023-06-10T01:57:07;5.10;;;3.77;;
13319;SDS011;59599;47.608;12.190;2023-06-10T01:59:33;4.10;;;3.70;;
13319;SDS011;59599;47.608;12.190;2023-06-10T02:01:59;5.83;;;3.80;;
13319;SDS011;59599;47.608;12.190;2023-06-10T02:04:25;5.53;;;3.90;;
13319;SDS011;59599;47.608;12.190;2023-06-10T02:06:51;5.00;;;3.70;;
13319;SDS011;59599;47.608;12.190;2023-06-10T02:09:18;10.50;;;4.30;;
13319;SDS011;59599;47.608;12.190;2023-06-10T02:11:43;4.37;;;3.90;;
13319;SDS011;59599;47.608;12.190;2023-06-10T02:14:09;5.00;;;4.17;;
13319;SDS011;59599;47.608;12.190;2023-06-10T02:16:35;7.43;;;4.10;;
13319;SDS011;59599;47.608;12.190;2023-06-10T02:19:01;4.30;;;3.37;;
13319;SDS011;59599;47.608;12.190;2023-06-10T02:21:31;4.23;;;3.83;;
13319;SDS011;59599;47.608;12.190;2023-06-10T02:23:57;4.83;;;4.03;;
13319;SDS011;59599;47.608;12.190;2023-06-10T02:26:22;4.40;;;3.97;;
13319;SDS011;59599;47.608;12.190;2023-06-10T02:28:50;5.73;;;3.80;;
13319;SDS011;59599;47.608;12.190;2023-06-10T02:31:16;7.33;;;4.50;;
13319;SDS011;59599;47.608;12.190;2023-06-10T02:33:42;4.30;;;3.90;;
13319;SDS011;59599;47.608;12.190;2023-06-10T02:36:09;4.43;;;3.80;;
13319;SDS011;59599;47.608;12.190;2023-06-10T02:38:38;5.43;;;3.90;;
13319;SDS011;59599;47.608;12.190;2023-06-10T02:41:05;7.20;;;4.13;;
13319;SDS011;59599;47.608;12.190;2023-06-10T02:43:30;6.70;;;3.80;;
13319;SDS011;59599;47.608;12.190;2023-06-10T02:45:56;4.43;;;3.73;;
13319;SDS011;59599;47.608;12.190;2023-06-10T02:48:26;4.83;;;4.20;;
13319;SDS011;59599;47.608;12.190;2023-06-10T02:50:52;4.50;;;4.10;;
13319;SDS011;59599;47.608;12.190;2023-06-10T02:53:17;4.97;;;4.10;;
13319;SDS011;59599;47.608;12.190;2023-06-10T02:55:43;5.40;;;4.30;;
13319;SDS011;59599;47.608;12.190;2023-06-10T02:58:09;9.83;;;4.10;;
13319;SDS011;59599;47.608;12.190;2023-06-10T03:00:35;4.30;;;3.90;;
13319;SDS011;59599;47.608;12.190;2023-06-10T03:03:02;4.80;;;3.70;;
13319;SDS011;59599;47.608;12.190;2023-06-10T03:05:28;4.20;;;3.80;;
13319;SDS011;59599;47.608;12.190;2023-06-10T03:07:54;4.03;;;3.63;;
13319;SDS011;59599;47.608;12.190;2023-06-10T03:10:20;4.30;;;3.90;;
13319;SDS011;59599;47.608;12.190;2023-06-10T03:12:46;7.40;;;3.80;;
13319;SDS011;59599;47.608;12.190;2023-06-10T03:15:11;5.33;;;3.57;;
13319;SDS011;59599;47.608;12.190;2023-06-10T03:17:38;4.37;;;3.80;;
13319;SDS011;59599;47.608;12.190;2023-06-10T03:20:03;7.07;;;3.90;;
13319;SDS011;59599;47.608;12.190;2023-06-10T03:22:30;4.63;;;4.20;;
13319;SDS011;59599;47.608;12.190;2023-06-10T03:24:56;6.57;;;4.13;;
13319;SDS011;59599;47.608;12.190;2023-06-10T03:27:22;4.90;;;3.80;;
13319;SDS011;59599;47.608;12.190;2023-06-10T03:29:47;4.87;;;3.80;;
13319;SDS011;59599;47.608;12.190;2023-06-10T03:32:13;4.50;;;4.10;;
13319;SDS011;59599;47.608;12.190;2023-06-10T03:34:40;4.10;;;3.70;;
13319;SDS011;59599;47.608;12.190;2023-06-10T03:37:06;4.10;;;3.70;;
13319;SDS011;59599;47.608;12.190;2023-06-10T03:39:32;4.57;;;3.90;;
13319;SDS011;59599;47.608;12.190;2023-06-10T03:41:58;4.83;;;3.87;;
13319;SDS011;59599;47.608;12.190;2023-06-10T03:44:24;5.67;;;4.50;;
13319;SDS011;59599;47.608;12.190;2023-06-10T03:46:54;5.50;;;4.00;;
13319;SDS011;59599;47.608;12.190;2023-06-10T03:49:20;4.80;;;4.40;;
13319;SDS011;59599;47.608;12.190;2023-06-10T03:51:46;4.30;;;3.90;;
13319;SDS011;59599;47.608;12.190;2023-06-10T03:54:12;6.63;;;3.60;;
13319;SDS011;59599;47.608;12.190;2023-06-10T03:56:38;5.30;;;4.50;;
13319;SDS011;59599;47.608;12.190;2023-06-10T03:59:05;4.57;;;4.17;;
13319;SDS011;59599;47.608;12.190;2023-06-10T04:01:30;5.30;;;4.67;;
13319;SDS011;59599;47.608;12.190;2023-06-10T04:03:56;5.73;;;4.13;;
13319;SDS011;59599;47.608;12.190;2023-06-10T04:06:22;6.83;;;4.50;;
13319;SDS011;59599;47.608;12.190;2023-06-10T04:08:50;5.00;;;4.50;;
13319;SDS011;59599;47.608;12.190;2023-06-10T04:11:16;9.30;;;4.87;;
13319;SDS011;59599;47.608;12.190;2023-06-10T04:13:42;6.53;;;4.40;;
13319;SDS011;59599;47.608;12.190;2023-06-10T04:16:08;5.40;;;4.67;;
13319;SDS011;59599;47.608;12.190;2023-06-10T04:18:33;6.50;;;5.17;;
13319;SDS011;59599;47.608;12.190;2023-06-10T04:20:59;7.93;;;5.57;;
13319;SDS011;59599;47.608;12.190;2023-06-10T04:23:25;5.90;;;5.30;;
13319;SDS011;59599;47.608;12.190;2023-06-10T04:25:51;6.20;;;5.60;;
13319;SDS011;59599;47.608;12.190;2023-06-10T04:28:17;5.87;;;5.27;;
13319;SDS011;59599;47.608;12.190;2023-06-10T04:30:43;5.57;;;5.07;;
13319;SDS011;59599;47.608;12.190;2023-06-10T04:33:10;6.57;;;5.47;;
13319;SDS011;59599;47.608;12.190;2023-06-10T04:35:36;6.20;;;5.37;;
13319;SDS011;59599;47.608;12.190;2023-06-10T04:38:01;10.37;;;5.73;;
13319;SDS011;59599;47.608;12.190;2023-06-10T04:40:28;6.10;;;5.50;;
13319;SDS011;59599;47.608;12.190;2023-06-10T04:42:53;6.50;;;5.87;;
13319;SDS011;59599;47.608;12.190;2023-06-10T04:45:19;6.67;;;5.97;;
13319;SDS011;59599;47.608;12.190;2023-06-10T04:47:45;6.53;;;5.50;;
13319;SDS011;59599;47.608;12.190;2023-06-10T04:50:11;6.43;;;5.83;;
13319;SDS011;59599;47.608;12.190;2023-06-10T04:52:37;5.80;;;5.20;;
13319;SDS011;59599;47.608;12.190;2023-06-10T04:55:03;6.23;;;5.30;;
13319;SDS011;59599;47.608;12.190;2023-06-10T04:57:29;6.30;;;5.63;;
13319;SDS011;59599;47.608;12.190;2023-06-10T04:59:54;5.77;;;5.17;;
13319;SDS011;59599;47.608;12.190;2023-06-10T05:02:20;6.40;;;5.13;;
13319;SDS011;59599;47.608;12.190;2023-06-10T05:04:46;9.17;;;5.63;;
13319;SDS011;59599;47.608;12.190;2023-06-10T05:07:12;6.30;;;5.70;;
13319;SDS011;59599;47.608;12.190;2023-06-10T05:09:38;5.93;;;5.43;;
13319;SDS011;59599;47.608;12.190;2023-06-10T05:12:04;6.10;;;5.17;;
13319;SDS011;59599;47.608;12.190;2023-06-10T05:14:30;7.57;;;4.87;;
13319;SDS011;59599;47.608;12.190;2023-06-10T05:16:56;6.00;;;5.40;;
13319;SDS011;59599;47.608;12.190;2023-06-10T05:19:22;6.20;;;5.60;;
13319;SDS011;59599;47.608;12.190;2023-06-10T05:21:48;7.53;;;5.43;;
13319;SDS011;59599;47.608;12.190;2023-06-10T05:24:14;5.97;;;5.20;;
13319;SDS011;59599;47.608;12.190;2023-06-10T05:26:40;5.67;;;4.87;;
13319;SDS011;59599;47.608;12.190;2023-06-10T05:29:07;7.20;;;5.33;;
13319;SDS011;59599;47.608;12.190;2023-06-10T05:31:36;6.00;;;5.30;;
13319;SDS011;59599;47.608;12.190;2023-06-10T05:34:01;6.37;;;4.60;;
13319;SDS011;59599;47.608;12.190;2023-06-10T05:36:27;7.67;;;4.93;;
13319;SDS011;59599;47.608;12.190;2023-06-10T05:38:53;5.40;;;4.90;;
13319;SDS011;59599;47.608;12.190;2023-06-10T05:41:19;5.30;;;4.80;;
13319;SDS011;59599;47.608;12.190;2023-06-10T05:43:47;5.37;;;4.33;;
13319;SDS011;59599;47.608;12.190;2023-06-10T05:46:12;7.07;;;4.40;;
13319;SDS011;59599;47.608;12.190;2023-06-10T05:48:38;4.63;;;4.20;;
13319;SDS011;59599;47.608;12.190;2023-06-10T05:51:04;6.60;;;4.30;;
13319;SDS011;59599;47.608;12.190;2023-06-10T05:53:30;4.93;;;4.27;;
13319;SDS011;59599;47.608;12.190;2023-06-10T05:55:56;4.90;;;4.10;;
13319;SDS011;59599;47.608;12.190;2023-06-10T05:58:22;4.93;;;4.30;;
13319;SDS011;59599;47.608;12.190;2023-06-10T06:00:48;7.78;;;4.70;;
13319;SDS011;59599;47.608;12.190;2023-06-10T06:03:14;6.30;;;4.00;;
13319;SDS011;59599;47.608;12.190;2023-06-10T06:05:40;5.27;;;4.50;;
13319;SDS011;59599;47.608;12.190;2023-06-10T06:08:06;5.17;;;4.67;;
13319;SDS011;59599;47.608;12.190;2023-06-10T06:10:32;6.97;;;4.68;;
13319;SDS011;59599;47.608;12.190;2023-06-10T06:12:59;4.90;;;4.38;;
13319;SDS011;59599;47.608;12.190;2023-06-10T06:15:25;7.23;;;4.40;;
13319;SDS011;59599;47.608;12.190;2023-06-10T06:17:51;7.93;;;5.38;;
13319;SDS011;59599;47.608;12.190;2023-06-10T06:20:18;7.10;;;4.60;;
13319;SDS011;59599;47.608;12.190;2023-06-10T06:22:44;5.53;;;4.47;;
13319;SDS011;59599;47.608;12.190;2023-06-10T06:25:10;5.10;;;4.60;;
13319;SDS011;59599;47.608;12.190;2023-06-10T06:27:36;5.80;;;4.35;;
13319;SDS011;59599;47.608;12.190;2023-06-10T06:30:02;5.35;;;3.90;;
13319;SDS011;59599;47.608;12.190;2023-06-10T06:32:28;5.95;;;4.40;;
13319;SDS011;59599;47.608;12.190;2023-06-10T06:34:54;4.53;;;3.80;;
13319;SDS011;59599;47.608;12.190;2023-06-10T06:37:23;4.40;;;4.00;;
13319;SDS011;59599;47.608;12.190;2023-06-10T06:39:50;4.50;;;4.10;;
13319;SDS011;59599;47.608;12.190;2023-06-10T06:42:16;5.18;;;3.80;;
13319;SDS011;59599;47.608;12.190;2023-06-10T06:44:41;4.80;;;4.35;;
13319;SDS011;59599;47.608;12.190;2023-06-10T06:47:07;5.63;;;3.72;;
13319;SDS011;59599;47.608;12.190;2023-06-10T06:49:33;4.50;;;4.10;;
13319;SDS011;59599;47.608;12.190;2023-06-10T06:51:59;6.18;;;4.18;;
13319;SDS011;59599;47.608;12.190;2023-06-10T06:54:25;11.05;;;4.25;;
13319;SDS011;59599;47.608;12.190;2023-06-10T06:56:51;6.85;;;4.32;;
13319;SDS011;59599;47.608;12.190;2023-06-10T06:59:17;4.68;;;4.15;;
13319;SDS011;59599;47.608;12.190;2023-06-10T07:01:44;4.72;;;3.97;;
13319;SDS011;59599;47.608;12.190;2023-06-10T07:04:10;5.97;;;4.82;;
13319;SDS011;59599;47.608;12.190;2023-06-10T07:06:35;5.07;;;4.55;;
13319;SDS011;59599;47.608;12.190;2023-06-10T07:09:01;5.43;;;4.10;;
13319;SDS011;59599;47.608;12.190;2023-06-10T07:11:28;7.25;;;4.45;;
13319;SDS011;59599;47.608;12.190;2023-06-10T07:13:53;5.05;;;4.10;;
13319;SDS011;59599;47.608;12.190;2023-06-10T07:16:19;4.75;;;4.25;;
13319;SDS011;59599;47.608;12.190;2023-06-10T07:18:46;5.00;;;4.50;;
13319;SDS011;59599;47.608;12.190;2023-06-10T07:21:11;4.55;;;4.15;;
13319;SDS011;59599;47.608;12.190;2023-06-10T07:23:39;4.15;;;3.75;;
13319;SDS011;59599;47.608;12.190;2023-06-10T07:26:07;4.35;;;3.95;;
13319;SDS011;59599;47.608;12.190;2023-06-10T07:28:36;5.50;;;4.35;;
13319;SDS011;59599;47.608;12.190;2023-06-10T07:31:01;4.75;;;4.20;;
13319;SDS011;59599;47.608;12.190;2023-06-10T07:33:27;4.60;;;4.07;;
13319;SDS011;59599;47.608;12.190;2023-06-10T07:35:53;4.80;;;4.10;;
13319;SDS011;59599;47.608;12.190;2023-06-10T07:38:19;6.57;;;4.30;;
13319;SDS011;59599;47.608;12.190;2023-06-10T07:40:46;5.88;;;4.57;;
13319;SDS011;59599;47.608;12.190;2023-06-10T07:43:12;4.65;;;4.25;;
13319;SDS011;59599;47.608;12.190;2023-06-10T07:45:40;4.50;;;4.10;;
13319;SDS011;59599;47.608;12.190;2023-06-10T07:48:06;4.95;;;4.00;;
13319;SDS011;59599;47.608;12.190;2023-06-10T07:50:32;4.47;;;3.90;;
13319;SDS011;59599;47.608;12.190;2023-06-10T07:52:58;5.28;;;4.70;;
13319;SDS011;59599;47.608;12.190;2023-06-10T07:55:24;5.32;;;4.13;;
13319;SDS011;59599;47.608;12.190;2023-06-10T07:57:53;4.40;;;4.00;;
13319;SDS011;59599;47.608;12.190;2023-06-10T08:00:20;6.47;;;4.28;;
13319;SDS011;59599;47.608;12.190;2023-06-10T08:02:46;7.25;;;4.57;;
13319;SDS011;59599;47.608;12.190;2023-06-10T08:05:12;4.88;;;4.00;;
13319;SDS011;59599;47.608;12.190;2023-06-10T08:07:38;6.55;;;4.57;;
13319;SDS011;59599;47.608;12.190;2023-06-10T08:10:05;4.70;;;4.30;;
13319;SDS011;59599;47.608;12.190;2023-06-10T08:12:31;4.88;;;4.32;;
13319;SDS011;59599;47.608;12.190;2023-06-10T08:15:00;4.93;;;4.30;;
13319;SDS011;59599;47.608;12.190;2023-06-10T08:17:26;4.63;;;4.15;;
13319;SDS011;59599;47.608;12.190;2023-06-10T08:19:52;4.72;;;4.22;;
13319;SDS011;59599;47.608;12.190;2023-06-10T08:22:17;5.50;;;5.00;;
13319;SDS011;59599;47.608;12.190;2023-06-10T08:24:43;5.28;;;4.30;;
13319;SDS011;59599;47.608;12.190;2023-06-10T08:27:09;4.72;;;4.30;;
13319;SDS011;59599;47.608;12.190;2023-06-10T08:29:35;4.57;;;4.10;;
13319;SDS011;59599;47.608;12.190;2023-06-10T08:32:01;4.60;;;4.05;;
13319;SDS011;59599;47.608;12.190;2023-06-10T08:34:27;5.47;;;4.57;;
13319;SDS011;59599;47.608;12.190;2023-06-10T08:36:53;5.30;;;4.55;;
13319;SDS011;59599;47.608;12.190;2023-06-10T08:39:20;7.72;;;4.88;;
13319;SDS011;59599;47.608;12.190;2023-06-10T08:41:51;5.53;;;5.03;;
13319;SDS011;59599;47.608;12.190;2023-06-10T08:44:28;6.75;;;5.10;;
13319;SDS011;59599;47.608;12.190;2023-06-10T08:46:58;10.55;;;5.22;;
13319;SDS011;59599;47.608;12.190;2023-06-10T08:49:26;5.68;;;5.18;;
13319;SDS011;59599;47.608;12.190;2023-06-10T08:51:55;5.10;;;4.60;;
13319;SDS011;59599;47.608;12.190;2023-06-10T08:54:22;7.25;;;4.90;;
13319;SDS011;59599;47.608;12.190;2023-06-10T08:56:51;7.50;;;4.75;;
13319;SDS011;59599;47.608;12.190;2023-06-10T08:59:20;5.03;;;4.53;;
13319;SDS011;59599;47.608;12.190;2023-06-10T09:01:46;6.40;;;5.05;;
13319;SDS011;59599;47.608;12.190;2023-06-10T09:04:13;15.65;;;4.90;;
13319;SDS011;59599;47.608;12.190;2023-06-10T09:06:40;8.02;;;4.47;;
13319;SDS011;59599;47.608;12.190;2023-06-10T09:09:06;6.43;;;4.68;;
13319;SDS011;59599;47.608;12.190;2023-06-10T09:11:33;8.77;;;5.05;;
13319;SDS011;59599;47.608;12.190;2023-06-10T09:13:59;6.50;;;4.80;;
13319;SDS011;59599;47.608;12.190;2023-06-10T09:16:25;7.90;;;5.07;;
13319;SDS011;59599;47.608;12.190;2023-06-10T09:18:51;5.30;;;4.78;;
13319;SDS011;59599;47.608;12.190;2023-06-10T09:21:22;6.47;;;5.40;;
13319;SDS011;59599;47.608;12.190;2023-06-10T09:23:49;6.93;;;5.45;;
13319;SDS011;59599;47.608;12.190;2023-06-10T09:26:15;6.78;;;5.45;;
13319;SDS011;59599;47.608;12.190;2023-06-10T09:28:42;7.32;;;6.15;;
13319;SDS011;59599;47.608;12.190;2023-06-10T09:31:15;8.50;;;5.32;;
13319;SDS011;59599;47.608;12.190;2023-06-10T09:33:43;6.55;;;5.15;;
13319;SDS011;59599;47.608;12.190;2023-06-10T09:36:09;7.25;;;5.38;;
13319;SDS011;59599;47.608;12.190;2023-06-10T09:38:36;9.43;;;5.72;;
13319;SDS011;59599;47.608;12.190;2023-06-10T09:41:02;8.70;;;5.97;;
13319;SDS011;59599;47.608;12.190;2023-06-10T09:43:41;7.00;;;5.05;;
13319;SDS011;59599;47.608;12.190;2023-06-10T09:46:14;6.50;;;5.90;;
13319;SDS011;59599;47.608;12.190;2023-06-10T09:48:41;6.43;;;5.78;;
13319;SDS011;59599;47.608;12.190;2023-06-10T09:51:10;8.98;;;6.43;;
13319;SDS011;59599;47.608;12.190;2023-06-10T09:53:36;7.47;;;6.20;;
13319;SDS011;59599;47.608;12.190;2023-06-10T09:56:02;6.80;;;6.10;;
13319;SDS011;59599;47.608;12.190;2023-06-10T09:58:35;7.13;;;6.43;;
13319;SDS011;59599;47.608;12.190;2023-06-10T10:01:04;11.45;;;6.57;;
13319;SDS011;59599;47.608;12.190;2023-06-10T10:03:30;6.40;;;5.80;;
13319;SDS011;59599;47.608;12.190;2023-06-10T10:05:59;8.55;;;6.38;;
13319;SDS011;59599;47.608;12.190;2023-06-10T10:08:26;7.30;;;6.10;;
13319;SDS011;59599;47.608;12.190;2023-06-10T10:10:52;12.45;;;6.20;;
13319;SDS011;59599;47.608;12.190;2023-06-10T10:13:18;7.70;;;6.13;;
13319;SDS011;59599;47.608;12.190;2023-06-10T10:15:44;8.50;;;6.05;;
13319;SDS011;59599;47.608;12.190;2023-06-10T10:18:11;7.40;;;5.93;;
13319;SDS011;59599;47.608;12.190;2023-06-10T10:20:41;8.98;;;6.38;;
13319;SDS011;59599;47.608;12.190;2023-06-10T10:23:12;6.18;;;5.57;;
13319;SDS011;59599;47.608;12.190;2023-06-10T10:25:40;7.15;;;5.70;;
13319;SDS011;59599;47.608;12.190;2023-06-10T10:28:08;8.05;;;5.03;;
13319;SDS011;59599;47.608;12.190;2023-06-10T10:30:37;6.15;;;5.55;;
13319;SDS011;59599;47.608;12.190;2023-06-10T10:33:06;8.63;;;5.78;;
13319;SDS011;59599;47.608;12.190;2023-06-10T10:35:35;8.25;;;5.22;;
13319;SDS011;59599;47.608;12.190;2023-06-10T10:38:01;6.90;;;5.00;;
13319;SDS011;59599;47.608;12.190;2023-06-10T10:40:27;7.35;;;5.28;;
13319;SDS011;59599;47.608;12.190;2023-06-10T10:42:54;6.93;;;5.18;;
13319;SDS011;59599;47.608;12.190;2023-06-10T10:45:21;6.78;;;5.00;;
13319;SDS011;59599;47.608;12.190;2023-06-10T10:47:49;7.35;;;5.10;;
13319;SDS011;59599;47.608;12.190;2023-06-10T10:50:18;6.05;;;4.80;;
13319;SDS011;59599;47.608;12.190;2023-06-10T10:52:46;5.65;;;4.53;;
13319;SDS011;59599;47.608;12.190;2023-06-10T10:55:16;4.93;;;4.50;;
13319;SDS011;59599;47.608;12.190;2023-06-10T10:57:41;4.90;;;4.32;;
13319;SDS011;59599;47.608;12.190;2023-06-10T11:00:08;5.28;;;4.47;;
13319;SDS011;59599;47.608;12.190;2023-06-10T11:02:41;4.70;;;4.20;;
13319;SDS011;59599;47.608;12.190;2023-06-10T11:05:08;5.03;;;4.07;;
13319;SDS011;59599;47.608;12.190;2023-06-10T11:07:55;4.30;;;3.90;;
13319;SDS011;59599;47.608;12.190;2023-06-10T11:10:30;4.60;;;4.20;;
13319;SDS011;59599;47.608;12.190;2023-06-10T11:12:56;4.55;;;4.15;;
13319;SDS011;59599;47.608;12.190;2023-06-10T11:15:23;4.43;;;4.00;;
13319;SDS011;59599;47.608;12.190;2023-06-10T11:28:36;6.20;;;4.45;;
13319;SDS011;59599;47.608;12.190;2023-06-10T11:31:02;4.93;;;4.43;;
13319;SDS011;59599;47.608;12.190;2023-06-10T11:33:28;5.82;;;4.13;;
13319;SDS011;59599;47.608;12.190;2023-06-10T11:35:54;5.10;;;4.50;;
13319;SDS011;59599;47.608;12.190;2023-06-10T11:38:20;6.55;;;4.38;;
13319;SDS011;59599;47.608;12.190;2023-06-10T11:40:49;4.85;;;4.35;;
13319;SDS011;59599;47.608;12.190;2023-06-10T11:43:18;5.07;;;4.10;;
13319;SDS011;59599;47.608;12.190;2023-06-10T11:45:45;4.90;;;4.50;;
13319;SDS011;59599;47.608;12.190;2023-06-10T11:48:12;4.45;;;4.03;;
13319;SDS011;59599;47.608;12.190;2023-06-10T11:50:38;4.70;;;4.30;;
13319;SDS011;59599;47.608;12.190;2023-06-10T11:53:07;6.22;;;4.13;;
13319;SDS011;59599;47.608;12.190;2023-06-10T11:55:42;4.60;;;4.20;;
13319;SDS011;59599;47.608;12.190;2023-06-10T12:00:47;4.35;;;3.80;;
13319;SDS011;59599;47.608;12.190;2023-06-10T12:03:18;4.18;;;3.78;;
13319;SDS011;59599;47.608;12.190;2023-06-10T12:06:00;4.35;;;3.95;;
13319;SDS011;59599;47.608;12.190;2023-06-10T12:08:27;4.38;;;3.97;;
13319;SDS011;59599;47.608;12.190;2023-06-10T12:10:53;4.57;;;4.18;;
13319;SDS011;59599;47.608;12.190;2023-06-10T12:13:19;4.78;;;4.25;;
13319;SDS011;59599;47.608;12.190;2023-06-10T12:15:46;4.45;;;4.05;;
13319;SDS011;59599;47.608;12.190;2023-06-10T12:18:19;3.88;;;3.58;;
13319;SDS011;59599;47.608;12.190;2023-06-10T12:20:45;4.78;;;4.28;;
13319;SDS011;59599;47.608;12.190;2023-06-10T12:23:12;4.15;;;3.75;;
13319;SDS011;59599;47.608;12.190;2023-06-10T12:25:38;4.00;;;3.65;;
13319;SDS011;59599;47.608;12.190;2023-06-10T12:28:05;4.32;;;3.92;;
13319;SDS011;59599;47.608;12.190;2023-06-10T12:30:34;4.95;;;3.80;;
13319;SDS011;59599;47.608;12.190;2023-06-10T12:33:00;5.10;;;4.13;;
13319;SDS011;59599;47.608;12.190;2023-06-10T12:35:26;3.97;;;3.65;;
13319;SDS011;59599;47.608;12.190;2023-06-10T12:37:57;5.35;;;4.05;;
13319;SDS011;59599;47.608;12.190;2023-06-10T12:42:54;4.43;;;3.63;;
13319;SDS011;59599;47.608;12.190;2023-06-10T12:45:27;4.18;;;3.70;;
13319;SDS011;59599;47.608;12.190;2023-06-10T12:48:04;3.85;;;3.55;;
13319;SDS011;59599;47.608;12.190;2023-06-10T12:50:31;4.13;;;3.67;;
13319;SDS011;59599;47.608;12.190;2023-06-10T12:52:57;4.45;;;4.00;;
13319;SDS011;59599;47.608;12.190;2023-06-10T12:55:22;4.43;;;4.03;;
13319;SDS011;59599;47.608;12.190;2023-06-10T12:57:49;4.22;;;3.83;;
13319;SDS011;59599;47.608;12.190;2023-06-10T13:00:15;4.05;;;3.45;;
13319;SDS011;59599;47.608;12.190;2023-06-10T13:02:42;4.40;;;3.75;;
13319;SDS011;59599;47.608;12.190;2023-06-10T13:05:08;5.30;;;3.60;;
13319;SDS011;59599;47.608;12.190;2023-06-10T13:07:34;5.70;;;4.10;;
13319;SDS011;59599;47.608;12.190;2023-06-10T13:10:00;4.30;;;3.90;;
13319;SDS011;59599;47.608;12.190;2023-06-10T13:12:26;5.20;;;4.15;;
13319;SDS011;59599;47.608;12.190;2023-06-10T13:14:54;3.88;;;3.38;;
13319;SDS011;59599;47.608;12.190;2023-06-10T13:17:20;4.45;;;4.05;;
13319;SDS011;59599;47.608;12.190;2023-06-10T13:19:46;4.82;;;3.75;;
13319;SDS011;59599;47.608;12.190;2023-06-10T13:22:13;4.82;;;4.30;;
13319;SDS011;59599;47.608;12.190;2023-06-10T13:24:39;3.75;;;3.35;;
13319;SDS011;59599;47.608;12.190;2023-06-10T13:27:08;3.85;;;3.53;;
13319;SDS011;59599;47.608;12.190;2023-06-10T13:29:34;3.65;;;3.10;;
13319;SDS011;59599;47.608;12.190;2023-06-10T13:32:00;3.40;;;2.97;;
13319;SDS011;59599;47.608;12.190;2023-06-10T13:34:26;4.00;;;3.60;;
13319;SDS011;59599;47.608;12.190;2023-06-10T13:36:53;4.07;;;3.67;;
13319;SDS011;59599;47.608;12.190;2023-06-10T13:39:19;4.82;;;3.80;;
13319;SDS011;59599;47.608;12.190;2023-06-10T13:41:45;4.72;;;3.60;;
13319;SDS011;59599;47.608;12.190;2023-06-10T13:44:11;3.97;;;3.63;;
13319;SDS011;59599;47.608;12.190;2023-06-10T13:46:37;4.13;;;3.63;;
13319;SDS011;59599;47.608;12.190;2023-06-10T13:49:03;4.13;;;3.70;;
13319;SDS011;59599;47.608;12.190;2023-06-10T13:51:29;4.72;;;4.32;;
13319;SDS011;59599;47.608;12.190;2023-06-10T13:53:54;4.82;;;4.43;;
13319;SDS011;59599;47.608;12.190;2023-06-10T13:56:20;4.68;;;4.28;;
13319;SDS011;59599;47.608;12.190;2023-06-10T13:58:46;4.53;;;3.72;;
13319;SDS011;59599;47.608;12.190;2023-06-10T14:01:12;5.88;;;3.63;;
13319;SDS011;59599;47.608;12.190;2023-06-10T14:03:38;7.85;;;4.05;;
13319;SDS011;59599;47.608;12.190;2023-06-10T14:06:04;14.13;;;5.70;;
13319;SDS011;59599;47.608;12.190;2023-06-10T14:08:30;10.45;;;5.15;;
13319;SDS011;59599;47.608;12.190;2023-06-10T14:10:56;13.95;;;5.63;;
13319;SDS011;59599;47.608;12.190;2023-06-10T14:13:22;13.68;;;5.63;;
13319;SDS011;59599;47.608;12.190;2023-06-10T14:15:48;9.82;;;5.38;;
13319;SDS011;59599;47.608;12.190;2023-06-10T14:18:14;11.38;;;5.25;;
13319;SDS011;59599;47.608;12.190;2023-06-10T14:20:40;5.88;;;5.03;;
13319;SDS011;59599;47.608;12.190;2023-06-10T14:23:06;7.47;;;4.50;;
13319;SDS011;59599;47.608;12.190;2023-06-10T14:25:32;7.45;;;4.88;;
13319;SDS011;59599;47.608;12.190;2023-06-10T14:27:58;7.18;;;4.57;;
13319;SDS011;59599;47.608;12.190;2023-06-10T14:30:24;5.22;;;4.72;;
13319;SDS011;59599;47.608;12.190;2023-06-10T14:32:50;5.22;;;4.72;;
13319;SDS011;59599;47.608;12.190;2023-06-10T14:35:16;6.20;;;5.07;;
13319;SDS011;59599;47.608;12.190;2023-06-10T14:37:42;7.65;;;4.85;;
13319;SDS011;59599;47.608;12.190;2023-06-10T14:40:08;5.13;;;4.40;;
13319;SDS011;59599;47.608;12.190;2023-06-10T14:42:34;7.60;;;4.63;;
13319;SDS011;59599;47.608;12.190;2023-06-10T14:45:00;12.73;;;4.93;;
13319;SDS011;59599;47.608;12.190;2023-06-10T14:47:26;8.20;;;5.30;;